createdAt,value
2017-08-03T00:00:03.979Z,5.40
2017-08-03T00:02:32.219Z,4.93
2017-08-03T00:05:00.436Z,5.63
2017-08-03T00:07:28.713Z,5.77
2017-08-03T00:09:56.946Z,5.63
2017-08-03T00:12:25.175Z,5.83
2017-08-03T00:14:54.219Z,6.07
2017-08-03T00:17:22.451Z,5.97
2017-08-03T00:19:51.448Z,6.07
2017-08-03T00:22:19.740Z,6.20
2017-08-03T00:24:47.979Z,6.17
2017-08-03T00:27:16.986Z,5.90
2017-08-03T00:30:10.094Z,8.07
2017-08-03T00:35:38.431Z,6.70
2017-08-03T00:38:07.442Z,6.20
2017-08-03T00:40:35.691Z,5.40
2017-08-03T00:43:11.247Z,5.97
2017-08-03T00:45:40.257Z,5.87
2017-08-03T00:48:08.503Z,6.00
2017-08-03T00:50:36.934Z,6.10
2017-08-03T00:53:05.172Z,5.40
2017-08-03T00:55:34.172Z,5.30
2017-08-03T00:58:11.414Z,5.90
2017-08-03T01:00:39.644Z,5.00
2017-08-03T01:03:07.877Z,4.93
2017-08-03T01:05:36.157Z,6.30
2017-08-03T01:08:04.406Z,6.27
2017-08-03T01:13:33.328Z,5.47
2017-08-03T01:16:01.572Z,6.00
2017-08-03T01:18:29.831Z,7.00
2017-08-03T01:20:58.139Z,5.60
2017-08-03T01:23:26.398Z,5.63
2017-08-03T01:26:11.127Z,6.20
2017-08-03T01:28:40.131Z,5.83
2017-08-03T01:31:08.382Z,6.63
2017-08-03T01:33:37.422Z,5.80
2017-08-03T01:36:11.438Z,8.57
2017-08-03T01:39:10.095Z,5.43
2017-08-03T01:41:38.338Z,6.90
2017-08-03T01:44:12.666Z,5.67
2017-08-03T01:46:46.510Z,6.50
2017-08-03T01:49:14.807Z,5.60
2017-08-03T01:52:09.576Z,6.40
2017-08-03T01:54:37.855Z,9.50
2017-08-03T01:57:12.241Z,5.70
2017-08-03T01:59:40.533Z,9.83
2017-08-03T02:02:09.530Z,6.40
2017-08-03T02:04:38.544Z,6.33
2017-08-03T02:07:13.354Z,7.00
2017-08-03T02:09:42.354Z,7.43
2017-08-03T02:12:10.903Z,5.40
2017-08-03T02:14:39.199Z,7.37
2017-08-03T02:17:07.437Z,8.57
2017-08-03T02:19:35.680Z,13.67
2017-08-03T02:22:10.764Z,6.13
2017-08-03T02:24:39.006Z,6.67
2017-08-03T02:27:07.239Z,6.20
2017-08-03T02:29:35.515Z,6.20
2017-08-03T02:32:04.515Z,5.80
2017-08-03T02:34:32.739Z,9.60
2017-08-03T02:37:13.718Z,6.10
2017-08-03T02:39:41.956Z,6.10
2017-08-03T02:42:10.202Z,6.43
2017-08-03T02:44:38.503Z,6.67
2017-08-03T02:47:06.735Z,5.67
2017-08-03T02:49:34.969Z,5.93
2017-08-03T02:52:03.428Z,6.70
2017-08-03T02:54:31.658Z,6.40
2017-08-03T02:56:59.902Z,6.77
2017-08-03T02:59:28.178Z,7.20
2017-08-03T03:01:56.411Z,5.23
2017-08-03T03:04:25.405Z,6.20
2017-08-03T03:06:53.688Z,5.67
2017-08-03T03:09:21.919Z,5.70
2017-08-03T03:11:50.143Z,6.13
2017-08-03T03:14:18.430Z,5.83
2017-08-03T03:16:46.678Z,6.93
2017-08-03T03:19:14.949Z,9.23
2017-08-03T03:21:43.231Z,6.40
2017-08-03T03:24:11.462Z,5.70
2017-08-03T03:26:39.707Z,6.27
2017-08-03T03:29:08.340Z,5.30
2017-08-03T03:34:37.322Z,6.00
2017-08-03T03:37:05.558Z,5.00
2017-08-03T03:39:33.795Z,5.70
2017-08-03T03:42:02.068Z,6.03
2017-08-03T03:44:30.309Z,5.27
2017-08-03T03:47:11.523Z,5.90
2017-08-03T03:50:09.988Z,5.33
2017-08-03T03:52:38.270Z,4.90
2017-08-03T03:55:06.490Z,5.70
2017-08-03T03:57:34.722Z,5.10
2017-08-03T04:00:10.662Z,5.23
2017-08-03T04:02:38.882Z,5.97
2017-08-03T04:05:07.887Z,5.40
2017-08-03T04:07:36.187Z,5.23
2017-08-03T04:10:04.406Z,4.80
2017-08-03T04:12:32.641Z,5.40
2017-08-03T04:15:11.366Z,5.10
2017-08-03T04:18:10.067Z,5.30
2017-08-03T04:20:39.242Z,5.40
2017-08-03T04:23:07.484Z,4.77
2017-08-03T04:25:36.519Z,5.03
2017-08-03T04:28:11.078Z,5.00
2017-08-03T04:30:39.307Z,4.50
2017-08-03T04:33:07.540Z,5.60
2017-08-03T04:35:35.803Z,4.53
2017-08-03T04:38:04.043Z,7.20
2017-08-03T04:40:32.270Z,6.10
2017-08-03T04:43:01.299Z,5.60
2017-08-03T04:45:29.530Z,4.80
2017-08-03T04:47:57.898Z,5.17
2017-08-03T04:50:26.971Z,5.47
2017-08-03T04:52:55.211Z,6.20
2017-08-03T04:58:24.197Z,5.00
2017-08-03T05:00:53.184Z,6.27
2017-08-03T05:03:21.430Z,7.03
2017-08-03T05:05:49.709Z,5.47
2017-08-03T05:08:17.950Z,5.00
2017-08-03T05:11:11.957Z,5.03
2017-08-03T05:13:40.190Z,7.07
2017-08-03T05:16:08.423Z,4.90
2017-08-03T05:18:36.689Z,9.77
2017-08-03T05:21:04.911Z,5.63
2017-08-03T05:29:33.985Z,11.10
2017-08-03T05:32:02.230Z,10.87
2017-08-03T05:34:30.462Z,11.60
2017-08-03T05:36:58.731Z,8.50
2017-08-03T05:39:26.982Z,10.47
2017-08-03T05:41:55.233Z,9.03
2017-08-03T05:44:23.534Z,6.17
2017-08-03T05:46:51.780Z,6.37
2017-08-03T05:49:20.178Z,13.20
2017-08-03T05:52:10.287Z,12.77
2017-08-03T05:54:38.525Z,5.43
2017-08-03T05:57:06.759Z,5.90
2017-08-03T05:59:35.056Z,12.60
2017-08-03T06:02:03.312Z,5.50
2017-08-03T06:04:32.316Z,6.37
2017-08-03T06:07:11.994Z,5.47
2017-08-03T06:09:40.216Z,5.00
2017-08-03T06:12:08.455Z,4.97
2017-08-03T06:14:36.736Z,9.30
2017-08-03T06:17:04.960Z,6.10
2017-08-03T06:19:33.978Z,9.93
2017-08-03T06:22:12.222Z,9.03
2017-08-03T06:24:40.466Z,7.60
2017-08-03T06:40:17.974Z,9.73
2017-08-03T06:42:46.242Z,12.20
2017-08-03T06:45:14.571Z,13.05
2017-08-03T06:48:09.556Z,8.10
2017-08-03T06:50:37.860Z,12.70
2017-08-03T06:53:06.102Z,12.30
2017-08-03T06:55:34.373Z,12.57
2017-08-03T06:58:02.625Z,12.03
2017-08-03T07:00:30.879Z,12.30
2017-08-03T07:03:12.514Z,12.90
2017-08-03T07:05:40.768Z,12.30
2017-08-03T07:11:11.195Z,7.07
2017-08-03T07:13:39.422Z,10.50
2017-08-03T07:22:14.259Z,7.53
2017-08-03T07:24:42.533Z,10.70
2017-08-03T07:27:10.805Z,10.10
2017-08-03T07:29:39.099Z,10.10
2017-08-03T07:32:07.342Z,11.53
2017-08-03T07:34:35.582Z,9.50
2017-08-03T07:37:03.858Z,9.47
2017-08-03T07:39:32.088Z,9.87
2017-08-03T07:42:00.329Z,11.93
2017-08-03T07:44:28.615Z,9.60
2017-08-03T07:46:56.865Z,9.77
2017-08-03T07:49:25.181Z,9.03
2017-08-03T07:51:53.659Z,8.43
2017-08-03T07:54:21.898Z,8.80
2017-08-03T07:56:50.154Z,8.87
2017-08-03T07:59:19.390Z,8.37
2017-08-03T08:01:47.638Z,9.10
2017-08-03T08:04:15.887Z,8.73
2017-08-03T08:06:44.169Z,8.10
2017-08-03T08:09:13.181Z,8.27
2017-08-03T08:12:11.284Z,9.23
2017-08-03T08:15:10.227Z,8.30
2017-08-03T08:17:38.567Z,8.43
2017-08-03T08:20:06.807Z,8.77
2017-08-03T08:22:35.061Z,8.27
2017-08-03T08:25:04.112Z,7.70
2017-08-03T08:30:32.919Z,7.70
2017-08-03T08:33:01.154Z,8.27
2017-08-03T08:35:29.400Z,7.57
2017-08-03T08:37:57.658Z,7.97
2017-08-03T08:40:25.916Z,7.47
2017-08-03T08:42:54.166Z,7.57
2017-08-03T08:45:23.026Z,6.83
2017-08-03T08:47:51.272Z,7.30
2017-08-03T08:50:19.489Z,7.67
2017-08-03T08:52:48.566Z,6.80
2017-08-03T08:55:16.848Z,7.67
2017-08-03T08:57:45.873Z,7.30
2017-08-03T09:14:20.220Z,6.40
2017-08-03T09:16:48.460Z,6.77
2017-08-03T09:19:16.744Z,6.73
2017-08-03T09:22:10.984Z,6.90
2017-08-03T09:24:39.259Z,7.10
2017-08-03T09:27:08.248Z,7.27
2017-08-03T09:29:37.251Z,6.13
2017-08-03T09:32:05.551Z,7.20
2017-08-03T09:34:33.790Z,6.87
2017-08-03T09:37:12.672Z,6.83
2017-08-03T09:40:11.208Z,6.40
2017-08-03T09:42:39.503Z,6.70
2017-08-03T09:45:07.756Z,5.97
2017-08-03T09:47:36.747Z,5.87
2017-08-03T09:50:05.804Z,6.37
2017-08-03T09:52:34.065Z,6.50
2017-08-03T09:55:02.546Z,6.00
2017-08-03T09:57:30.841Z,6.70
2017-08-03T09:59:59.065Z,6.50
2017-08-03T10:02:28.059Z,6.40
2017-08-03T10:04:56.313Z,6.40
2017-08-03T10:07:24.542Z,6.40
2017-08-03T10:09:52.781Z,6.77
2017-08-03T10:12:21.090Z,6.70
2017-08-03T10:14:49.355Z,5.87
2017-08-03T10:17:17.578Z,6.13
2017-08-03T10:19:45.854Z,6.27
2017-08-03T10:22:14.100Z,5.80
2017-08-03T10:24:42.328Z,6.40
2017-08-03T10:27:11.382Z,5.30
2017-08-03T10:29:39.628Z,6.40
2017-08-03T10:32:07.850Z,6.53
2017-08-03T10:34:36.103Z,7.10
2017-08-03T10:37:04.324Z,6.80
2017-08-03T10:39:32.584Z,6.63
2017-08-03T10:42:01.643Z,8.83
2017-08-03T10:44:29.873Z,6.73
2017-08-03T10:47:10.780Z,6.70
2017-08-03T10:49:39.701Z,6.40
2017-08-03T10:52:07.938Z,6.73
2017-08-03T10:54:36.189Z,6.33
2017-08-03T10:57:04.416Z,6.37
2017-08-03T10:59:32.674Z,5.83
2017-08-03T11:02:11.424Z,6.33
2017-08-03T11:04:39.673Z,6.00
2017-08-03T11:18:58.419Z,6.60
2017-08-03T11:21:27.690Z,5.90
2017-08-03T11:26:31.364Z,5.90
2017-08-03T11:29:13.420Z,6.30
2017-08-03T11:31:41.707Z,6.00
2017-08-03T11:34:11.675Z,6.00
2017-08-03T11:36:40.199Z,6.10
2017-08-03T11:39:08.486Z,6.13
2017-08-03T11:41:36.732Z,6.37
2017-08-03T11:44:05.012Z,6.80
2017-08-03T11:46:33.251Z,6.23
2017-08-03T11:49:01.481Z,5.77
2017-08-03T11:51:29.789Z,6.10
2017-08-03T11:53:58.783Z,5.60
2017-08-03T11:59:27.964Z,6.27
2017-08-03T12:01:56.208Z,6.33
2017-08-03T12:04:25.000Z,6.30
2017-08-03T12:19:57.777Z,6.30
2017-08-03T12:22:26.689Z,5.80
2017-08-03T12:25:12.519Z,6.93
2017-08-03T12:27:40.761Z,6.27
2017-08-03T12:30:09.435Z,7.30
2017-08-03T12:32:37.748Z,8.57
2017-08-03T12:35:06.010Z,10.17
2017-08-03T12:37:34.276Z,9.17
2017-08-03T12:40:12.146Z,11.40
2017-08-03T12:42:40.394Z,12.37
2017-08-03T12:45:08.678Z,10.70
2017-08-03T12:47:36.957Z,8.77
2017-08-03T12:50:05.220Z,9.00
2017-08-03T12:55:34.970Z,7.40
2017-08-03T12:58:03.190Z,7.17
2017-08-03T13:00:31.419Z,6.60
2017-08-03T13:02:59.729Z,7.60
2017-08-03T13:08:28.701Z,7.20
2017-08-03T13:10:56.960Z,7.80
2017-08-03T13:13:25.216Z,7.20
2017-08-03T13:15:53.520Z,6.80
2017-08-03T13:18:21.763Z,6.97
2017-08-03T13:20:50.775Z,6.97
2017-08-03T13:23:19.204Z,8.07
2017-08-03T13:25:48.544Z,7.75
2017-08-03T13:28:17.253Z,7.30
2017-08-03T13:30:45.566Z,7.67
2017-08-03T13:33:14.735Z,7.00
2017-08-03T13:36:10.328Z,6.87
2017-08-03T13:38:39.220Z,8.00
2017-08-03T13:41:07.443Z,8.03
2017-08-03T13:43:35.734Z,6.20
2017-08-03T13:46:03.965Z,7.10
2017-08-03T13:48:32.215Z,8.20
2017-08-03T13:51:00.516Z,7.13
2017-08-03T13:53:28.765Z,7.47
2017-08-03T13:55:56.990Z,7.33
2017-08-03T13:58:25.275Z,8.37
2017-08-03T14:00:53.559Z,7.37
2017-08-03T14:03:21.812Z,7.00
2017-08-03T14:05:50.095Z,6.13
2017-08-03T14:08:18.324Z,6.30
2017-08-03T14:10:46.547Z,6.50
2017-08-03T14:15:48.847Z,6.20
2017-08-03T14:18:17.115Z,5.63
2017-08-03T14:20:45.366Z,6.63
2017-08-03T14:23:13.579Z,5.30
2017-08-03T14:25:41.839Z,5.43
2017-08-03T14:28:10.083Z,5.93
2017-08-03T14:33:38.399Z,5.30
2017-08-03T14:36:06.639Z,5.40
2017-08-03T14:38:34.874Z,5.20
2017-08-03T14:41:03.182Z,5.30
2017-08-03T14:43:33.044Z,4.80
2017-08-03T14:46:11.743Z,5.00
2017-08-03T14:48:39.962Z,5.13
2017-08-03T14:51:08.205Z,5.50
2017-08-03T14:53:37.768Z,5.00
2017-08-03T14:56:06.018Z,5.60
2017-08-03T14:58:35.125Z,5.40
2017-08-03T15:01:33.950Z,4.60
2017-08-03T15:04:02.174Z,5.10
2017-08-03T15:06:30.389Z,5.63
2017-08-03T15:08:58.656Z,6.00
2017-08-03T15:11:26.891Z,5.17
2017-08-03T15:14:12.479Z,5.17
2017-08-03T15:16:40.744Z,5.30
2017-08-03T15:19:11.941Z,6.40
2017-08-03T15:21:40.436Z,5.20
2017-08-03T15:24:08.924Z,4.80
2017-08-03T15:29:37.926Z,5.50
2017-08-03T15:32:06.159Z,5.70
2017-08-03T15:34:35.166Z,5.93
2017-08-03T15:37:03.462Z,5.33
2017-08-03T15:39:31.687Z,5.27
2017-08-03T15:42:13.248Z,5.47
2017-08-03T15:44:41.494Z,6.10
2017-08-03T15:47:09.719Z,5.33
2017-08-03T15:49:37.992Z,5.23
2017-08-03T15:52:06.213Z,5.10
2017-08-03T15:57:34.610Z,5.30
2017-08-03T16:00:02.848Z,5.40
2017-08-03T16:11:17.287Z,5.17
2017-08-03T16:13:45.512Z,6.00
2017-08-03T16:16:13.741Z,5.10
2017-08-03T16:18:42.016Z,6.27
2017-08-03T16:21:10.229Z,5.50
2017-08-03T16:23:38.460Z,6.53
2017-08-03T16:26:07.498Z,5.53
2017-08-03T16:28:35.741Z,5.67
2017-08-03T16:31:13.902Z,6.20
2017-08-03T16:33:42.148Z,5.60
2017-08-03T16:36:12.103Z,5.70
2017-08-03T16:39:10.543Z,6.97
2017-08-03T16:41:38.770Z,5.73
2017-08-03T16:44:07.753Z,5.80
2017-08-03T16:46:36.041Z,6.03
2017-08-03T16:49:05.031Z,5.60
2017-08-03T16:51:34.026Z,6.37
2017-08-03T16:54:03.062Z,6.70
2017-08-03T16:56:31.290Z,5.50
2017-08-03T16:59:00.325Z,6.27
2017-08-03T17:01:28.616Z,5.70
2017-08-03T17:03:56.871Z,6.70
2017-08-03T17:09:25.145Z,5.83
2017-08-03T17:11:53.385Z,5.67
2017-08-03T17:14:21.638Z,5.90
2017-08-03T17:16:49.913Z,5.93
2017-08-03T17:19:18.172Z,5.80
2017-08-03T17:21:46.393Z,6.33
2017-08-03T17:24:15.433Z,7.90
2017-08-03T17:26:43.655Z,12.80
2017-08-03T17:29:11.891Z,9.03
2017-08-03T17:31:40.232Z,10.57
2017-08-03T17:34:08.489Z,11.70
2017-08-03T17:36:37.569Z,10.20
2017-08-03T17:39:05.841Z,9.40
2017-08-03T17:41:34.109Z,10.80
2017-08-03T17:44:03.098Z,8.83
2017-08-03T17:46:31.375Z,9.30
2017-08-03T17:49:11.979Z,7.60
2017-08-03T17:51:41.040Z,5.07
2017-08-03T17:54:09.257Z,5.83
2017-08-03T17:56:37.498Z,5.40
2017-08-03T17:59:05.778Z,5.87
2017-08-03T18:04:34.771Z,5.30
2017-08-03T18:07:03.525Z,5.90
2017-08-03T18:09:31.761Z,5.00
2017-08-03T18:12:00.033Z,5.37
2017-08-03T18:17:29.039Z,5.00
2017-08-03T18:19:57.272Z,5.53
2017-08-03T18:22:25.521Z,5.67
2017-08-03T18:24:53.837Z,5.73
2017-08-03T18:27:22.088Z,5.33
2017-08-03T18:29:50.393Z,4.83
2017-08-03T18:32:18.665Z,6.37
2017-08-03T18:34:46.898Z,5.27
2017-08-03T18:37:15.130Z,5.30
2017-08-03T18:39:43.417Z,5.80
2017-08-03T18:42:11.650Z,5.83
2017-08-03T18:44:39.911Z,5.47
2017-08-03T18:47:11.511Z,4.73
2017-08-03T18:53:10.760Z,5.80
2017-08-03T18:55:39.774Z,5.27
2017-08-03T18:58:11.496Z,4.53
2017-08-03T19:00:39.709Z,5.70
2017-08-03T19:03:14.721Z,5.17
2017-08-03T19:05:43.804Z,4.97
2017-08-03T19:08:12.819Z,5.07
2017-08-03T19:11:10.882Z,5.37
2017-08-03T19:16:40.010Z,4.80
2017-08-03T19:19:08.259Z,4.67
2017-08-03T19:21:37.301Z,4.40
2017-08-03T19:24:05.633Z,5.33
2017-08-03T19:26:33.908Z,5.40
2017-08-03T19:29:02.925Z,5.17
2017-08-03T19:31:31.245Z,5.77
2017-08-03T19:33:59.503Z,5.37
2017-08-03T19:36:27.733Z,5.37
2017-08-03T19:39:11.505Z,4.63
2017-08-03T19:44:40.951Z,4.33
2017-08-03T19:47:09.203Z,5.80
2017-08-03T19:49:37.484Z,4.60
2017-08-03T19:52:12.409Z,5.47
2017-08-03T19:54:40.667Z,5.80
2017-08-03T19:57:08.915Z,5.57
2017-08-03T19:59:37.199Z,5.40
2017-08-03T20:02:05.444Z,5.30
2017-08-03T20:04:33.693Z,5.40
2017-08-03T20:07:12.004Z,5.10
2017-08-03T20:10:10.701Z,6.00
2017-08-03T20:12:38.995Z,5.90
2017-08-03T20:15:07.606Z,5.33
2017-08-03T20:17:35.836Z,5.20
2017-08-03T20:20:11.579Z,4.83
2017-08-03T20:23:10.194Z,5.63
2017-08-03T20:25:38.500Z,5.37
2017-08-03T20:28:07.506Z,5.00
2017-08-03T20:30:35.755Z,5.97
2017-08-03T20:33:11.386Z,4.97
2017-08-03T20:35:39.637Z,6.17
2017-08-03T20:38:11.640Z,5.17
2017-08-03T20:40:39.891Z,5.53
2017-08-03T20:43:08.128Z,5.90
2017-08-03T20:45:37.212Z,5.63
2017-08-03T20:48:05.468Z,5.40
2017-08-03T20:50:33.678Z,4.80
2017-08-03T20:53:02.036Z,6.20
2017-08-03T20:55:31.024Z,6.47
2017-08-03T20:58:00.024Z,5.83
2017-08-03T21:00:29.068Z,5.53
2017-08-03T21:02:57.371Z,5.90
2017-08-03T21:08:04.136Z,4.37
2017-08-03T21:10:32.391Z,5.80
2017-08-03T21:13:00.622Z,4.77
2017-08-03T21:15:29.671Z,5.40
2017-08-03T21:17:57.918Z,5.70
2017-08-03T21:20:26.129Z,5.20
2017-08-03T21:22:54.394Z,5.10
2017-08-03T21:25:22.614Z,5.37
2017-08-03T21:27:51.618Z,5.50
2017-08-03T21:30:19.889Z,5.57
2017-08-03T21:32:48.918Z,4.63
2017-08-03T21:35:17.141Z,5.77
2017-08-03T21:38:11.215Z,6.00
2017-08-03T21:40:39.458Z,5.90
2017-08-03T21:43:07.715Z,5.57
2017-08-03T21:45:35.986Z,4.87
2017-08-03T21:48:04.273Z,6.40
2017-08-03T21:50:32.516Z,5.50
2017-08-03T21:53:01.611Z,5.70
2017-08-03T21:55:29.849Z,5.27
2017-08-03T21:58:11.652Z,5.90
2017-08-03T22:03:39.811Z,6.23
2017-08-03T22:06:08.028Z,6.60
2017-08-03T22:08:36.250Z,6.70
2017-08-03T22:11:04.516Z,6.27
2017-08-03T22:13:32.745Z,6.23
2017-08-03T22:16:11.387Z,6.77
2017-08-03T22:18:40.397Z,6.10
2017-08-03T22:21:08.622Z,6.93
2017-08-03T22:23:37.184Z,6.80
2017-08-03T22:26:11.560Z,7.03
2017-08-03T22:28:40.582Z,6.90
2017-08-03T22:31:08.798Z,6.97
2017-08-03T22:33:37.012Z,8.20
2017-08-03T22:36:05.276Z,7.13
2017-08-03T22:38:34.283Z,5.60
2017-08-03T22:41:02.518Z,7.70
2017-08-03T22:46:30.842Z,7.13
2017-08-03T22:48:59.076Z,6.27
2017-08-03T22:51:27.295Z,6.77
2017-08-03T22:53:55.572Z,6.20
2017-08-03T22:56:23.800Z,7.13
2017-08-03T22:59:11.485Z,6.60
2017-08-03T23:04:40.052Z,5.90
2017-08-03T23:07:08.289Z,6.60
2017-08-03T23:09:36.527Z,6.30
2017-08-03T23:12:11.452Z,6.53
2017-08-03T23:14:40.461Z,5.73
2017-08-03T23:17:08.699Z,5.57
2017-08-03T23:19:37.012Z,5.93
2017-08-03T23:25:05.684Z,5.60
2017-08-03T23:27:33.902Z,5.70
2017-08-03T23:30:02.123Z,6.20
2017-08-03T23:32:30.391Z,7.30
2017-08-03T23:34:58.623Z,6.03
2017-08-03T23:40:28.165Z,8.07
2017-08-03T23:42:56.385Z,6.20
2017-08-03T23:45:24.598Z,6.40
2017-08-03T23:47:52.869Z,7.17
2017-08-03T23:50:21.110Z,5.80
2017-08-03T23:52:50.126Z,7.10
2017-08-03T23:55:18.406Z,7.63
2017-08-03T23:57:46.613Z,5.97
